메인 페이지
METAR-TAF:

METAR-TAF

공항 :

파포스, 키프로스

위도: 34-43N, 경도: 032-29E, 고도: 11m

현재 날씨관측

예보는 37분 전, 08:30시(UTC)에 발표되었습니다.
북동13kt
온도 14°C
습도 82%
기압 1012 hPa
시정 10km 이상
고도 2500ft 상공 구름 조금, 적란운.
고도 5000ft 상공 구름 많음
뇌우

METAR: LCPH 090830Z 05013KT 9999 TS FEW025CB BKN050 14/11 Q1012

시각: 11:07 (09:07 UTC)

예보

예보는 3 시간 37분 전, 05:30시(UTC)에 발표되었습니다.
예보 대상 시간: 09일 06시부터 10일 06시까지 (UTC)
북동7kt
시정 10km 이상
고도 1500ft 상공 구름 조금
고도 2000ft 상공 구름 보통
확률 40% :
일시적
09일 06시부터 10일 06시까지 (UTC)
시정: 5000m
소나기
확률 30% :
일시적
09일 06시부터 09일 19시까지 (UTC)
여러 방향의 바람 20kt, 순간 최대 풍속 30kt
시정: 3000m
고도 1000ft 상공 구름 보통
고도 2000ft 상공 구름 보통, 적란운.
뇌우, 비
전환 중
09일 08시부터 09일 11시까지 (UTC)
남동10kt
전환 중
09일 15시부터 09일 18시까지 (UTC)
북동7kt

TAF: LCPH 090530Z 0906/1006 05007KT 9999 FEW015 SCT020 PROB40 TEMPO 0906/1006 5000 SHRA PROB30 TEMPO 0906/0919 VRB20G30KT 3000 TSRA SCT010 SCT020CB BECMG 0908/0911 13010KT BECMG 0915/0918 04007KT

4,000개 이상의 공항 관측 자료 및 예보 (METAR 및 TAF 보고).

지도상에서 검색 가능한 기상관측소가 노란 점과 빨간 점으로 표시되어 있습니다.

기상관측소 명을 보려면 표시 위로 마우스를 이동하세요.

날씨 관측과 예보를 보려면 클릭하세요.

지도 변경 : 확대하려면 엑스 표시가 있는 녹색 버튼, 축소하려면 빼기 표시가 있는 녹색 버튼, 다음 페이지의 지도를 보려면 녹색 화살표를 클릭하세요.


METAR-TAF: